createdAt,value
2023-07-03T00:00:52.878Z,71.62
2023-07-03T00:03:20.838Z,71.25
2023-07-03T00:05:49.492Z,72.82
2023-07-03T00:08:19.264Z,72.33
2023-07-03T00:10:48.418Z,72.59
2023-07-03T00:13:16.277Z,73.38
2023-07-03T00:15:44.409Z,73.60
2023-07-03T00:18:12.406Z,73.15
2023-07-03T00:20:40.634Z,72.87
2023-07-03T00:23:08.623Z,73.14
2023-07-03T00:25:39.060Z,73.28
2023-07-03T00:28:08.295Z,73.20
2023-07-03T00:30:37.501Z,73.36
2023-07-03T00:33:05.353Z,73.13
2023-07-03T00:35:33.774Z,73.14
2023-07-03T00:38:01.646Z,73.88
2023-07-03T00:40:29.657Z,73.92
2023-07-03T00:42:58.104Z,75.27
2023-07-03T00:45:28.003Z,74.50
2023-07-03T00:47:55.814Z,74.58
2023-07-03T00:50:24.302Z,74.36
2023-07-03T00:52:55.749Z,74.96
2023-07-03T00:55:24.540Z,75.36
2023-07-03T00:57:53.045Z,75.52
2023-07-03T01:00:22.373Z,75.27
2023-07-03T01:02:59.954Z,75.88
2023-07-03T01:05:31.407Z,76.09
2023-07-03T01:08:02.953Z,75.90
2023-07-03T01:10:32.866Z,75.48
2023-07-03T01:13:03.498Z,75.66
2023-07-03T01:15:35.912Z,76.04
2023-07-03T01:18:07.085Z,75.93
2023-07-03T01:20:41.187Z,75.97
2023-07-03T01:23:18.092Z,75.95
2023-07-03T01:25:49.591Z,76.84
2023-07-03T01:28:20.474Z,76.88
2023-07-03T01:30:51.084Z,76.82
2023-07-03T01:33:22.965Z,76.69
2023-07-03T01:35:52.980Z,76.59
2023-07-03T01:38:22.495Z,76.03
2023-07-03T01:40:52.584Z,76.51
2023-07-03T01:43:20.903Z,76.65
2023-07-03T01:45:50.158Z,77.15
2023-07-03T01:48:20.774Z,77.40
2023-07-03T01:50:50.050Z,77.14
2023-07-03T01:53:19.464Z,77.26
2023-07-03T01:55:52.463Z,77.70
2023-07-03T01:58:31.299Z,78.60
2023-07-03T02:01:02.346Z,77.89
2023-07-03T02:03:36.307Z,77.27
2023-07-03T02:06:09.483Z,77.19
2023-07-03T02:08:38.022Z,77.69
2023-07-03T02:11:15.715Z,77.56
2023-07-03T02:13:45.556Z,77.05
2023-07-03T02:16:16.933Z,77.48
2023-07-03T02:18:47.842Z,77.95
2023-07-03T02:21:18.075Z,77.31
2023-07-03T02:23:46.418Z,77.39
2023-07-03T02:26:16.660Z,77.96
2023-07-03T02:28:44.644Z,77.78
2023-07-03T02:31:13.288Z,76.94
2023-07-03T02:33:41.210Z,77.61
2023-07-03T02:36:09.258Z,77.82
2023-07-03T02:38:37.141Z,78.05
2023-07-03T02:41:05.109Z,77.76
2023-07-03T02:43:34.336Z,77.93
2023-07-03T02:46:06.376Z,77.98
2023-07-03T02:48:35.728Z,77.90
2023-07-03T02:51:04.875Z,77.98
2023-07-03T02:53:34.197Z,77.83
2023-07-03T02:56:08.580Z,77.81
2023-07-03T02:58:40.103Z,78.34
2023-07-03T03:01:09.858Z,78.72
2023-07-03T03:03:37.985Z,78.73
2023-07-03T03:06:06.373Z,79.10
2023-07-03T03:08:34.481Z,79.34
2023-07-03T03:11:02.353Z,79.33
2023-07-03T03:13:30.261Z,79.50
2023-07-03T03:16:01.453Z,79.47
2023-07-03T03:18:29.123Z,79.75
2023-07-03T03:20:57.067Z,79.95
2023-07-03T03:23:24.955Z,79.86
2023-07-03T03:25:53.081Z,80.30
2023-07-03T03:28:21.787Z,79.80
2023-07-03T03:30:49.720Z,80.37
2023-07-03T03:33:19.024Z,80.54
2023-07-03T03:35:47.252Z,80.88
2023-07-03T03:38:15.661Z,80.92
2023-07-03T03:40:45.050Z,81.08
2023-07-03T03:43:12.907Z,81.37
2023-07-03T03:45:40.865Z,81.28
2023-07-03T03:48:08.893Z,81.39
2023-07-03T03:50:38.829Z,81.05
2023-07-03T03:53:06.688Z,81.28
2023-07-03T03:55:34.667Z,81.31
2023-07-03T03:58:02.699Z,80.98
2023-07-03T04:00:30.983Z,80.60
2023-07-03T04:02:59.851Z,81.17
2023-07-03T04:05:27.736Z,81.33
2023-07-03T04:07:56.943Z,81.18
2023-07-03T04:10:24.819Z,81.39
2023-07-03T04:12:53.052Z,81.59
2023-07-03T04:15:20.925Z,81.27
2023-07-03T04:17:49.008Z,81.06
2023-07-03T04:20:18.857Z,81.05
2023-07-03T04:22:47.256Z,81.08
2023-07-03T04:25:16.482Z,81.01
2023-07-03T04:27:44.296Z,80.84
2023-07-03T04:30:13.193Z,80.93
2023-07-03T04:32:41.192Z,81.03
2023-07-03T04:35:09.970Z,81.15
2023-07-03T04:37:38.253Z,81.30
2023-07-03T04:40:07.754Z,80.76
2023-07-03T04:42:36.949Z,81.44
2023-07-03T04:45:07.340Z,81.35
2023-07-03T04:47:38.780Z,81.31
2023-07-03T04:50:08.955Z,81.21
2023-07-03T04:52:39.702Z,81.12
2023-07-03T04:55:08.911Z,80.82
2023-07-03T04:57:39.634Z,80.68
2023-07-03T05:00:15.697Z,80.50
2023-07-03T05:02:43.895Z,80.67
2023-07-03T05:05:12.822Z,80.74
2023-07-03T05:07:41.418Z,80.83
2023-07-03T05:10:10.936Z,80.47
2023-07-03T05:12:40.206Z,80.18
2023-07-03T05:15:09.569Z,80.61
2023-07-03T05:17:39.691Z,80.29
2023-07-03T05:20:11.194Z,80.79
2023-07-03T05:22:39.888Z,79.93
2023-07-03T05:25:09.113Z,79.53
2023-07-03T05:27:37.189Z,80.08
2023-07-03T05:30:08.231Z,80.51
2023-07-03T05:32:36.588Z,80.50
2023-07-03T05:35:06.448Z,80.52
2023-07-03T05:37:35.197Z,80.68
2023-07-03T05:40:04.936Z,80.85
2023-07-03T05:42:33.026Z,80.71
2023-07-03T05:45:00.912Z,80.97
2023-07-03T05:47:30.714Z,80.82
2023-07-03T05:49:58.809Z,80.79
2023-07-03T05:52:26.970Z,80.77
2023-07-03T05:54:54.912Z,80.67
2023-07-03T05:57:23.283Z,80.59
2023-07-03T05:59:51.784Z,80.40
2023-07-03T06:02:20.148Z,80.08
2023-07-03T06:04:49.419Z,79.91
2023-07-03T06:07:17.291Z,79.57
2023-07-03T06:09:47.483Z,79.59
2023-07-03T06:12:15.383Z,79.69
2023-07-03T06:14:43.256Z,79.10
2023-07-03T06:17:11.171Z,79.40
2023-07-03T06:19:39.056Z,78.79
2023-07-03T06:22:08.484Z,78.90
2023-07-03T06:24:36.317Z,78.87
2023-07-03T06:27:04.836Z,78.57
2023-07-03T06:29:32.892Z,78.29
2023-07-03T06:32:00.820Z,77.85
2023-07-03T06:34:28.839Z,77.58
2023-07-03T06:36:56.697Z,76.49
2023-07-03T06:39:25.962Z,75.59
2023-07-03T06:41:53.618Z,75.39
2023-07-03T06:44:22.457Z,74.87
2023-07-03T06:46:52.037Z,73.11
2023-07-03T06:49:21.326Z,70.35
2023-07-03T06:51:49.378Z,69.85
2023-07-03T06:54:17.432Z,67.86
2023-07-03T06:56:46.756Z,67.12
2023-07-03T06:59:14.873Z,66.21
2023-07-03T07:01:42.998Z,62.90
2023-07-03T07:04:11.424Z,61.02
2023-07-03T07:06:41.350Z,59.82
2023-07-03T07:09:09.201Z,58.37
2023-07-03T07:11:37.980Z,57.30
2023-07-03T07:14:08.112Z,56.59
2023-07-03T07:16:38.152Z,57.68
2023-07-03T07:19:08.137Z,60.19
2023-07-03T07:21:37.325Z,60.47
2023-07-03T07:24:14.796Z,61.48
2023-07-03T07:26:42.713Z,60.65
2023-07-03T07:29:12.105Z,59.18
2023-07-03T07:31:41.856Z,56.81
2023-07-03T07:34:11.998Z,55.31
2023-07-03T07:36:41.358Z,53.13
2023-07-03T07:39:10.432Z,52.52
2023-07-03T07:41:38.451Z,53.56
2023-07-03T07:44:07.118Z,54.48
2023-07-03T07:46:36.702Z,56.63
2023-07-03T07:49:04.795Z,55.20
2023-07-03T07:51:32.962Z,54.89
2023-07-03T07:54:01.122Z,51.62
2023-07-03T07:56:31.555Z,52.46
2023-07-03T07:59:00.501Z,52.91
2023-07-03T08:01:28.633Z,51.46
2023-07-03T08:03:58.172Z,52.16
2023-07-03T08:06:26.230Z,53.77
2023-07-03T08:08:54.364Z,52.79
2023-07-03T08:11:22.319Z,51.85
2023-07-03T08:13:50.253Z,53.39
2023-07-03T08:16:18.701Z,55.70
2023-07-03T08:18:49.626Z,55.10
2023-07-03T08:21:19.322Z,55.99
2023-07-03T08:23:47.192Z,57.00
2023-07-03T08:26:20.283Z,59.42
2023-07-03T08:28:48.238Z,60.57
2023-07-03T08:31:16.094Z,60.67
2023-07-03T08:33:44.157Z,61.03
2023-07-03T08:38:44.161Z,59.91
2023-07-03T08:41:14.688Z,58.61
2023-07-03T08:43:44.418Z,58.58
2023-07-03T08:46:15.234Z,60.30
2023-07-03T08:48:44.912Z,60.12
2023-07-03T08:51:17.036Z,61.74
2023-07-03T08:53:49.769Z,61.10
2023-07-03T08:56:21.490Z,62.59
2023-07-03T08:58:52.148Z,64.23
2023-07-03T09:01:23.950Z,64.83
2023-07-03T09:04:02.583Z,64.74
2023-07-03T09:06:37.949Z,64.29
2023-07-03T09:09:16.077Z,64.31
2023-07-03T09:11:49.096Z,62.57
2023-07-03T09:14:21.938Z,58.06
2023-07-03T09:16:50.000Z,58.34
2023-07-03T09:19:22.288Z,58.23
2023-07-03T09:21:53.824Z,56.62
2023-07-03T09:24:27.480Z,56.57
2023-07-03T09:27:01.527Z,57.55
2023-07-03T09:29:31.040Z,59.32
2023-07-03T09:31:58.931Z,59.17
2023-07-03T09:34:26.891Z,60.38
2023-07-03T09:36:59.947Z,60.16
2023-07-03T09:39:29.235Z,61.02
2023-07-03T09:42:07.427Z,57.63
2023-07-03T09:44:43.161Z,58.72
2023-07-03T09:47:19.262Z,58.33
2023-07-03T09:49:47.185Z,57.31
2023-07-03T09:52:16.752Z,55.48
2023-07-03T09:54:48.677Z,56.20
2023-07-03T09:57:22.083Z,56.41
2023-07-03T09:59:50.010Z,57.34
2023-07-03T10:07:20.587Z,59.14
2023-07-03T10:12:29.127Z,60.71
2023-07-03T10:15:01.661Z,59.96
2023-07-03T10:17:33.895Z,59.63
2023-07-03T10:20:09.299Z,60.93
2023-07-03T10:22:38.488Z,59.25
2023-07-03T10:25:09.695Z,59.55
2023-07-03T10:27:39.291Z,57.78
2023-07-03T10:30:12.344Z,58.21
2023-07-03T10:32:42.004Z,58.22
2023-07-03T10:35:14.766Z,58.91
2023-07-03T10:37:51.535Z,59.25
2023-07-03T10:40:24.715Z,60.34
2023-07-03T10:42:56.916Z,59.92
2023-07-03T10:45:26.593Z,60.16
2023-07-03T10:47:57.775Z,60.43
2023-07-03T10:50:33.007Z,60.98
2023-07-03T10:53:07.390Z,59.83
2023-07-03T10:55:45.059Z,59.21
2023-07-03T10:58:24.403Z,56.39
2023-07-03T11:00:59.522Z,55.12
2023-07-03T11:03:35.362Z,54.48
2023-07-03T11:06:06.550Z,53.77
2023-07-03T11:08:41.160Z,53.39
2023-07-03T11:11:19.985Z,52.66
2023-07-03T11:13:56.538Z,52.58
2023-07-03T11:16:30.251Z,52.21
2023-07-03T11:24:25.687Z,53.98
2023-07-03T11:29:36.022Z,56.27
2023-07-03T11:32:04.338Z,55.75
2023-07-03T11:40:29.366Z,53.75
2023-07-03T11:43:30.902Z,53.06
2023-07-03T11:46:11.979Z,50.45
2023-07-03T11:48:47.386Z,50.14
2023-07-03T11:51:17.170Z,49.68
2023-07-03T11:53:47.024Z,49.21
2023-07-03T11:56:36.905Z,48.46
2023-07-03T11:59:09.213Z,50.68
2023-07-03T12:01:37.943Z,52.19
2023-07-03T12:04:08.961Z,54.31
2023-07-03T12:06:48.904Z,54.55
2023-07-03T12:09:26.458Z,55.49
2023-07-03T12:12:14.402Z,54.15
2023-07-03T12:14:54.866Z,52.17
2023-07-03T12:17:24.717Z,51.82
2023-07-03T12:19:56.808Z,51.02
2023-07-03T12:22:27.282Z,51.41
2023-07-03T12:25:09.666Z,53.80
2023-07-03T12:27:38.389Z,52.16
2023-07-03T12:30:11.723Z,52.44
2023-07-03T12:32:39.912Z,51.51
2023-07-03T12:35:12.945Z,53.38
2023-07-03T12:37:47.043Z,54.00
2023-07-03T12:40:16.748Z,53.42
2023-07-03T12:42:47.441Z,54.31
2023-07-03T12:45:20.494Z,53.32
2023-07-03T12:48:00.997Z,51.58
2023-07-03T12:50:29.093Z,52.65
2023-07-03T12:52:58.327Z,52.49
2023-07-03T12:55:27.077Z,52.25
2023-07-03T12:57:55.250Z,50.92
2023-07-03T13:00:31.896Z,49.47
2023-07-03T13:03:00.608Z,51.75
2023-07-03T13:05:28.992Z,52.74
2023-07-03T13:07:56.991Z,53.09
2023-07-03T13:10:25.439Z,50.85
2023-07-03T13:13:10.393Z,50.95
2023-07-03T13:15:42.101Z,51.17
2023-07-03T13:18:16.075Z,52.25
2023-07-03T13:20:56.344Z,50.61
2023-07-03T13:23:30.296Z,53.06
2023-07-03T13:25:59.033Z,51.37
2023-07-03T13:28:29.189Z,52.32
2023-07-03T13:31:13.196Z,53.30
2023-07-03T13:33:43.083Z,54.20
2023-07-03T13:36:22.848Z,54.15
2023-07-03T13:39:02.143Z,54.51
2023-07-03T13:41:30.045Z,54.77
2023-07-03T13:43:58.499Z,54.80
2023-07-03T13:46:28.900Z,55.51
2023-07-03T13:48:56.820Z,55.20
2023-07-03T13:51:24.726Z,55.79
2023-07-03T13:53:56.236Z,55.58
2023-07-03T13:56:31.459Z,55.59
2023-07-03T13:58:59.301Z,54.95
2023-07-03T14:01:28.569Z,54.22
2023-07-03T14:03:57.077Z,54.91
2023-07-03T14:06:25.458Z,55.44
2023-07-03T14:08:54.301Z,55.39
2023-07-03T14:11:22.142Z,55.62
2023-07-03T14:13:50.996Z,54.51
2023-07-03T14:16:19.042Z,55.11
2023-07-03T14:18:48.266Z,55.08
2023-07-03T14:21:18.365Z,54.11
2023-07-03T14:23:48.608Z,54.50
2023-07-03T14:26:17.120Z,55.25
2023-07-03T14:28:46.674Z,55.84
2023-07-03T14:31:16.965Z,56.51
2023-07-03T14:33:45.778Z,57.11
2023-07-03T14:36:14.999Z,56.94
2023-07-03T14:38:42.857Z,56.72
2023-07-03T14:41:11.267Z,57.19
2023-07-03T14:43:39.367Z,57.62
2023-07-03T14:46:07.870Z,57.10
2023-07-03T14:48:35.794Z,57.81
2023-07-03T14:51:04.152Z,57.76
2023-07-03T14:53:33.410Z,56.49
2023-07-03T14:56:03.804Z,55.23
2023-07-03T14:58:32.007Z,55.86
2023-07-03T15:01:01.997Z,56.45
2023-07-03T15:03:30.843Z,55.25
2023-07-03T15:05:58.813Z,56.20
2023-07-03T15:08:27.780Z,56.49
2023-07-03T15:10:56.819Z,56.16
2023-07-03T15:13:24.546Z,56.94
2023-07-03T15:15:52.656Z,56.87
2023-07-03T15:18:20.832Z,56.26
2023-07-03T15:20:48.655Z,56.50
2023-07-03T15:23:16.616Z,57.48
2023-07-03T15:25:44.539Z,56.69
2023-07-03T15:28:13.834Z,57.04
2023-07-03T15:30:42.007Z,56.86
2023-07-03T15:33:10.173Z,56.15
2023-07-03T15:35:38.095Z,55.79
2023-07-03T15:38:06.029Z,54.53
2023-07-03T15:40:33.895Z,56.38
2023-07-03T15:43:01.767Z,56.10
2023-07-03T15:45:32.285Z,56.56
2023-07-03T15:48:00.188Z,56.15
2023-07-03T15:50:28.117Z,56.88
2023-07-03T15:52:56.852Z,56.39
2023-07-03T15:55:24.855Z,55.63
2023-07-03T15:57:52.951Z,55.36
2023-07-03T16:00:21.331Z,55.89
2023-07-03T16:02:50.602Z,54.96
2023-07-03T16:05:19.519Z,53.80
2023-07-03T16:07:47.406Z,53.57
2023-07-03T16:10:15.366Z,54.44
2023-07-03T16:12:43.228Z,54.71
2023-07-03T16:15:11.730Z,54.77
2023-07-03T16:17:39.676Z,54.47
2023-07-03T16:20:13.032Z,54.73
2023-07-03T16:22:40.895Z,54.33
2023-07-03T16:25:09.543Z,54.18
2023-07-03T16:27:39.399Z,54.59
2023-07-03T16:30:08.678Z,54.75
2023-07-03T16:32:36.621Z,55.80
2023-07-03T16:35:04.654Z,54.88
2023-07-03T16:37:33.883Z,54.98
2023-07-03T16:40:01.899Z,55.53
2023-07-03T16:42:29.862Z,55.14
2023-07-03T16:44:57.788Z,56.36
2023-07-03T16:47:25.688Z,55.61
2023-07-03T16:49:53.562Z,54.11
2023-07-03T16:52:21.469Z,55.39
2023-07-03T16:54:50.634Z,55.33
2023-07-03T16:57:18.479Z,55.66
2023-07-03T16:59:46.436Z,56.41
2023-07-03T17:02:14.425Z,55.10
2023-07-03T17:04:42.324Z,56.17
2023-07-03T17:07:10.194Z,55.96
2023-07-03T17:09:38.119Z,57.04
2023-07-03T17:12:08.516Z,57.34
2023-07-03T17:14:36.662Z,57.20
2023-07-03T17:17:04.817Z,57.03
2023-07-03T17:19:33.842Z,58.17
2023-07-03T17:22:01.602Z,56.37
2023-07-03T17:24:29.442Z,57.87
2023-07-03T17:26:57.279Z,58.56
2023-07-03T17:29:26.794Z,57.84
2023-07-03T17:31:54.711Z,58.37
2023-07-03T17:34:22.598Z,57.52
2023-07-03T17:36:50.496Z,58.10
2023-07-03T17:39:18.401Z,58.28
2023-07-03T17:41:46.617Z,57.40
2023-07-03T17:44:14.581Z,58.37
2023-07-03T17:46:43.842Z,57.98
2023-07-03T17:49:11.765Z,59.10
2023-07-03T17:51:39.647Z,57.96
2023-07-03T17:54:07.838Z,59.11
2023-07-03T17:56:35.713Z,58.27
2023-07-03T17:59:03.550Z,59.73
2023-07-03T18:01:31.484Z,59.26
2023-07-03T18:04:01.700Z,59.15
2023-07-03T18:06:29.755Z,59.62
2023-07-03T18:08:57.777Z,59.85
2023-07-03T18:11:26.565Z,59.44
2023-07-03T18:13:54.860Z,59.60
2023-07-03T18:16:23.006Z,60.22
2023-07-03T18:18:50.936Z,60.69
2023-07-03T18:21:20.134Z,60.74
2023-07-03T18:23:49.542Z,59.94
2023-07-03T18:26:17.554Z,61.31
2023-07-03T18:28:46.228Z,60.67
2023-07-03T18:31:14.148Z,60.28
2023-07-03T18:33:42.046Z,60.99
2023-07-03T18:36:10.159Z,61.26
2023-07-03T18:38:39.435Z,62.68
2023-07-03T18:41:08.720Z,61.70
2023-07-03T18:43:36.572Z,61.13
2023-07-03T18:46:07.910Z,61.84
2023-07-03T18:48:36.119Z,61.68
2023-07-03T18:51:04.047Z,62.43
2023-07-03T18:53:31.903Z,61.48
2023-07-03T18:56:01.162Z,61.95
2023-07-03T18:58:29.028Z,62.81
2023-07-03T19:00:56.929Z,62.75
2023-07-03T19:03:24.822Z,63.03
2023-07-03T19:05:55.873Z,64.56
2023-07-03T19:08:24.210Z,62.88
2023-07-03T19:10:52.359Z,63.91
2023-07-03T19:13:21.741Z,63.83
2023-07-03T19:15:49.947Z,63.93
2023-07-03T19:18:17.965Z,63.30
2023-07-03T19:20:45.992Z,63.36
2023-07-03T19:23:13.857Z,63.25
2023-07-03T19:25:41.754Z,63.47
2023-07-03T19:28:10.284Z,63.62
2023-07-03T19:30:39.620Z,63.89
2023-07-03T19:33:07.584Z,63.64
2023-07-03T19:35:37.653Z,64.01
2023-07-03T19:38:05.551Z,64.50
2023-07-03T19:40:37.795Z,64.83
2023-07-03T19:43:05.838Z,64.85
2023-07-03T19:45:34.626Z,65.56
2023-07-03T19:48:04.672Z,65.21
2023-07-03T19:50:33.016Z,65.90
2023-07-03T19:53:00.998Z,65.89
2023-07-03T19:55:29.023Z,66.46
2023-07-03T19:57:56.877Z,66.38
2023-07-03T20:00:26.794Z,66.36
2023-07-03T20:02:55.561Z,66.37
2023-07-03T20:05:25.197Z,66.87
2023-07-03T20:07:53.476Z,65.67
2023-07-03T20:10:21.441Z,65.79
2023-07-03T20:12:52.541Z,65.02
2023-07-03T20:15:21.601Z,65.89
2023-07-03T20:17:50.158Z,65.88
2023-07-03T20:20:18.138Z,66.71
2023-07-03T20:22:47.417Z,66.50
2023-07-03T20:25:15.558Z,66.85
2023-07-03T20:27:43.496Z,66.57
2023-07-03T20:30:12.091Z,67.21
2023-07-03T20:32:39.997Z,67.26
2023-07-03T20:35:08.483Z,66.93
2023-07-03T20:37:36.339Z,67.58
2023-07-03T20:40:06.777Z,67.79
2023-07-03T20:42:34.831Z,67.63
2023-07-03T20:45:02.948Z,67.07
2023-07-03T20:47:32.691Z,67.74
2023-07-03T20:50:01.600Z,67.56
2023-07-03T20:52:30.816Z,67.83
2023-07-03T20:55:23.423Z,68.04
2023-07-03T20:57:52.981Z,68.28
2023-07-03T21:00:21.650Z,68.20
2023-07-03T21:02:51.231Z,68.05
2023-07-03T21:05:20.213Z,69.23
2023-07-03T21:07:48.533Z,69.53
2023-07-03T21:10:16.587Z,68.64
2023-07-03T21:12:44.599Z,69.03
2023-07-03T21:15:14.057Z,69.10
2023-07-03T21:17:42.015Z,70.24
2023-07-03T21:20:11.246Z,69.21
2023-07-03T21:22:38.973Z,68.84
2023-07-03T21:25:07.639Z,69.51
2023-07-03T21:27:35.474Z,69.67
2023-07-03T21:30:03.435Z,69.94
2023-07-03T21:32:32.750Z,70.41
2023-07-03T21:35:00.995Z,70.59
2023-07-03T21:37:30.942Z,69.12
2023-07-03T21:39:59.017Z,70.73
2023-07-03T21:42:26.936Z,70.31
2023-07-03T21:44:54.769Z,71.35
2023-07-03T21:47:22.618Z,70.45
2023-07-03T21:49:51.864Z,71.31
2023-07-03T21:52:19.556Z,71.00
2023-07-03T21:54:48.540Z,71.57
2023-07-03T21:57:19.284Z,71.72
2023-07-03T21:59:49.494Z,72.48
2023-07-03T22:02:17.308Z,71.15
2023-07-03T22:04:45.203Z,72.48
2023-07-03T22:07:14.696Z,71.24
2023-07-03T22:09:42.928Z,72.47
2023-07-03T22:12:11.787Z,71.70
2023-07-03T22:14:39.777Z,72.18
2023-07-03T22:17:07.831Z,71.68
2023-07-03T22:19:37.487Z,71.90
2023-07-03T22:22:07.418Z,71.49
2023-07-03T22:24:36.631Z,72.66
2023-07-03T22:27:05.108Z,72.27
2023-07-03T22:29:33.079Z,73.85
2023-07-03T22:32:00.966Z,72.45
2023-07-03T22:34:28.841Z,72.17
2023-07-03T22:36:56.681Z,72.17
2023-07-03T22:39:24.530Z,71.82
2023-07-03T22:41:54.389Z,72.54
2023-07-03T22:44:22.247Z,72.24
2023-07-03T22:46:51.961Z,72.02
2023-07-03T22:49:25.142Z,72.06
2023-07-03T22:51:54.002Z,71.44
2023-07-03T22:54:22.584Z,71.57
2023-07-03T22:56:50.495Z,71.88
2023-07-03T22:59:19.818Z,72.05
2023-07-03T23:01:49.192Z,72.22
2023-07-03T23:04:17.688Z,72.45
2023-07-03T23:06:46.911Z,72.18
2023-07-03T23:09:15.098Z,71.99
2023-07-03T23:11:42.948Z,72.44
2023-07-03T23:14:11.344Z,72.14
2023-07-03T23:16:40.644Z,72.96
2023-07-03T23:19:09.115Z,72.04
2023-07-03T23:21:36.973Z,72.16
2023-07-03T23:24:05.054Z,72.05
2023-07-03T23:26:32.982Z,71.90
2023-07-03T23:29:02.192Z,72.37
2023-07-03T23:31:30.389Z,71.90
2023-07-03T23:33:59.607Z,72.60
2023-07-03T23:36:29.075Z,72.45
2023-07-03T23:38:59.302Z,72.30
2023-07-03T23:41:27.864Z,72.88
2023-07-03T23:43:57.527Z,73.27
2023-07-03T23:46:27.793Z,73.61
2023-07-03T23:48:55.716Z,73.96
2023-07-03T23:51:25.065Z,74.44
2023-07-03T23:53:52.976Z,73.72
2023-07-03T23:56:21.870Z,74.05
2023-07-03T23:58:50.812Z,74.33
